Airway Heights, WA

12:30 PM PDT on August 27, 2014 (GMT -0700)
Fairchild Air Force Base | Change Station
CLOSE
Current Station
Airport
Location: Spokane Fairchild,
Elevation: 2461 ft
Nearby Weather Stations

Elev 2461 ft 47.62 °N, 117.66 °W | Updated 32 minutes ago

Clear
Clear
83 °F
Feels Like 83 °F
N
8
Wind Variable Wind from South

Today
High -- | Low -- °F
--% Chance of Precip.
Yesterday
High -- | Low -- °F
Precip. -- in
6:02 AM 7:40 PM
Waxing Crescent, 4% visible
Pressure 30.02 in
Visibility 10.0 miles
Clouds Clear
Dew Point 41 °F
Humidity 23%
Rainfall 0.00 in
Snow Depth Not available.
UV 8 out of 12
Pollen 7.70 out of 12
PM2.5 Moderate
Flu Activity Not available.
METAR KSKA 271858Z AUTO 19007KT 10SM CLR 28/05 A3006 RMK AO2 RAB1813E1823B1847DZB1840E1850 SLP165 P0000 T02830052

More Conditions Fewer Conditions

Pressure 30.02 in
Visibility 10.0 miles
Clouds Clear
Dew Point 41 °F
Humidity 23%
Rainfall 0.00 in
Snow Depth Not available.
UV 8 out of 12
Pollen 7.70 out of 12
PM2.5 Moderate
Flu Activity Not available.
METAR KSKA 271858Z AUTO 19007KT 10SM CLR 28/05 A3006 RMK AO2 RAB1813E1823B1847DZB1840E1850 SLP165 P0000 T02830052

More Conditions Fewer Conditions

10-Day Weather Forecast

Almanac

Astronomy

Aug. 27, 2014 Rise Set
Actual Time 6:02 AM PDT 7:40 PM PDT
Civil Twilight 5:29 AM PDT 8:12 PM PDT
Nautical Twilight 4:50 AM PDT 8:52 PM PDT
Astronomical Twilight 4:06 AM PDT 9:35 PM PDT
Moon 8:14 AM PDT 8:21 PM PDT
Length of Visible Light 14h 42m
Length of Day
13h 38m
Tomorrow will be 3m 16s shorter.
Waxing Crescent, 4% of the Moon is Illuminated
Today
Waxing Crescent
Sep 2
First Quarter
Sep 8
Full
Sep 15
Last Quarter
Sep 24
New

Today's Extremes

State Highs State Lows

Community

WunderPhotos

Upload Photos

1,747,769 photos uploaded!

Nearby

Air Quality

  Air Quality AQ Index Pollutant
Yesterday Good
PM10
Yesterday Good
OZONE
Current Moderate
PM2.5
Wednesday Good
PM10
Wednesday Good
OZONE
Thursday Good
PM10
Thursday Good
OZONE

Snow Depth

Station Depth Elevation
Quartz Peak 1 in 4700 ft
Moses Mountain 0 in 5300 ft
Sentinel Butte 0 in 4920 ft
Trough 0 in 5300 ft
Upper Wheeler 0 in 4400 ft

Earthquake Activity

City Distance Mag. Time & Date
No recent earthquake activity has been reported nearby.
Minimum magnitude displayed is 2.5.

Coastal Water Temperatures

Place Temperature
No Stations Reporting

Nearby Weather Stations